Kezdőlap
METAR-TAF:

METAR-TAF

Repülőterek :

Somerset Airport

Somerville, New Jersey, Amerikai Egyesült Államok

földrajzi szélesség: 40-37-26N, földrajzi hosszúság: 074-40-10W, magasság: 32 m

Jelenlegi meteorológiai megfigyelések

A jelentés 30 perccel ezelõtt készült, 06:01 UTC
Szélcsend
Hőmérséklet 16°C
Páratartalom 94%
Légköri nyomás 1022 hPa
Látótávolság: 4.8 km
Borult 400 lábon
Párásság

METAR: KSMQ 260601Z AUTO 00000KT 3SM BR OVC004 16/15 A3018 RMK AO2 T01560150

Idő: 02:31 (06:31 UTC)


TAF: hiányzik

Meteorológiai megfigyelések és előrejelzések több, mint 4000 repülőtéren (METAR és TAF jelentéseket).

A térképen piros és sárga pontok jelzik az elérhető meteorológiai állomásokat.

Mozgassa az egeret a pont fölött, hogy megjelenjen az állomás neve.

Azután kattintson az időjárási megfigyelések és előrejelzések megtekintéséhez.

A térkép megváltoztatása: kattintson a fekete keresztel jelölt zöld gombra ráközelítéshez, a vonallal jelölt zöld gombra távolításhoz, vagy a zöld nyilakra a szomszédos térképek eléréséhez.


METAR-TAF: